Time;durP1;ratioP1;P1;durP2;ratioP2;P2;SDS_P1;SDS_P2;PMS_P1;PMS_P2;Temp;Humidity;BMP_temperature;BMP_pressure;BME280_temperature;BME280_humidity;BME280_pressure;Samples;Min_cycle;Max_cycle;Signal;HPM_P1;HPM_P2
2022/07/24 00:00:41;;;;;;;5.15;3.92;;;21.60;58.50;;;;;;5010702;28;20138;-73
2022/07/24 00:03:07;;;;;;;5.53;3.88;;;21.60;58.60;;;;;;5010503;28;20050;-73
2022/07/24 00:05:34;;;;;;;4.30;3.40;;;20.20;62.80;;;;;;5010745;28;20060;-73
2022/07/24 00:08:01;;;;;;;4.28;3.33;;;21.60;58.50;;;;;;5011037;28;20077;-73
2022/07/24 00:10:27;;;;;;;4.22;3.20;;;21.60;58.50;;;;;;5010839;28;20054;-73
2022/07/24 00:12:56;;;;;;;4.60;3.67;;;22.00;63.30;;;;;;5010806;28;20064;-74
2022/07/24 00:15:22;;;;;;;4.47;3.42;;;22.90;63.40;;;;;;5010623;28;20062;-74
2022/07/24 00:17:49;;;;;;;4.97;3.83;;;21.60;58.50;;;;;;5010755;28;20067;-74
2022/07/24 00:20:16;;;;;;;4.25;3.40;;;21.60;58.50;;;;;;5010765;28;20058;-74
2022/07/24 00:22:42;;;;;;;4.00;3.38;;;20.60;62.30;;;;;;5010456;28;20085;-73
2022/07/24 00:25:09;;;;;;;4.10;3.25;;;21.50;58.50;;;;;;5010250;28;20061;-73
2022/07/24 00:27:36;;;;;;;4.50;3.20;;;21.50;58.50;;;;;;5010468;28;20128;-73
2022/07/24 00:30:06;;;;;;;3.83;3.33;;;21.00;63.20;;;;;;5010747;28;20054;-73
2022/07/24 00:32:33;;;;;;;4.90;3.70;;;22.10;62.60;;;;;;5010408;28;20061;-74
2022/07/24 00:35:00;;;;;;;4.38;3.30;;;21.50;58.50;;;;;;5010531;28;20415;-73
2022/07/24 00:37:27;;;;;;;4.07;3.00;;;21.50;58.50;;;;;;5009785;28;20062;-73
2022/07/24 00:39:53;;;;;;;4.18;3.05;;;21.50;63.20;;;;;;5001645;28;20050;-74
2022/07/24 00:42:20;;;;;;;4.93;3.40;;;21.30;62.50;;;;;;5010946;28;20121;-73
2022/07/24 00:44:47;;;;;;;4.25;3.28;;;21.40;62.10;;;;;;5009729;28;20125;-73
2022/07/24 00:47:15;;;;;;;4.15;2.97;;;21.50;62.30;;;;;;5010230;28;20148;-73
2022/07/24 00:49:42;;;;;;;4.90;2.95;;;21.50;58.50;;;;;;5010112;28;20486;-73
2022/07/24 00:52:09;;;;;;;3.88;2.88;;;21.20;61.90;;;;;;5010329;28;20057;-73
2022/07/24 00:54:36;;;;;;;4.03;3.00;;;21.60;62.90;;;;;;5009887;28;20053;-73
2022/07/24 00:57:02;;;;;;;3.78;3.08;;;21.40;63.30;;;;;;5008439;28;20100;-73
2022/07/24 00:59:29;;;;;;;3.53;2.67;;;21.40;58.40;;;;;;5010370;28;20089;-73
2022/07/24 01:01:56;;;;;;;3.30;2.80;;;21.40;58.40;;;;;;5009762;28;20061;-74
2022/07/24 01:04:24;;;;;;;3.75;2.83;;;22.00;62.60;;;;;;5009725;28;20108;-73
2022/07/24 01:06:51;;;;;;;4.13;2.72;;;21.50;62.50;;;;;;5010353;28;20084;-73
2022/07/24 01:09:18;;;;;;;3.55;2.90;;;20.70;62.40;;;;;;5011212;28;20082;-73
2022/07/24 01:11:45;;;;;;;4.00;3.13;;;21.40;58.40;;;;;;5000408;28;20598;-74
2022/07/24 01:14:12;;;;;;;3.65;2.95;;;21.40;58.40;;;;;;4991164;28;20061;-73
2022/07/24 01:16:38;;;;;;;3.88;2.83;;;21.40;58.40;;;;;;4990345;28;20145;-73
2022/07/24 01:19:05;;;;;;;3.85;2.67;;;19.70;61.70;;;;;;4990556;28;20141;-73
2022/07/24 01:21:34;;;;;;;3.35;2.50;;;21.50;61.50;;;;;;4990203;28;20061;-73
2022/07/24 01:24:01;;;;;;;3.40;2.50;;;21.40;58.40;;;;;;4990115;28;20105;-73
2022/07/24 01:26:27;;;;;;;3.47;2.58;;;21.00;58.20;;;;;;5002977;28;20133;-73
2022/07/24 01:28:54;;;;;;;3.25;2.53;;;20.40;61.60;;;;;;5010194;28;20118;-73
2022/07/24 01:31:21;;;;;;;3.90;2.85;;;21.30;58.40;;;;;;5009880;28;20129;-73
2022/07/24 01:33:48;;;;;;;3.70;2.78;;;21.40;58.40;;;;;;5009523;28;20410;-73
2022/07/24 01:36:14;;;;;;;2.78;2.40;;;21.00;62.50;;;;;;5009960;28;20406;-73
2022/07/24 01:38:42;;;;;;;4.20;2.83;;;21.30;58.40;;;;;;5009886;28;20144;-73
2022/07/24 01:41:09;;;;;;;3.40;2.80;;;21.30;58.40;;;;;;5005275;28;20072;-73
2022/07/24 01:43:36;;;;;;;2.90;2.33;;;21.30;58.40;;;;;;5007965;28;20129;-73
2022/07/24 01:46:02;;;;;;;2.97;2.30;;;21.50;62.30;;;;;;5009559;28;20125;-73
2022/07/24 01:48:29;;;;;;;3.30;2.60;;;21.30;58.40;;;;;;5009613;28;20108;-73
2022/07/24 01:50:56;;;;;;;3.58;2.80;;;21.30;58.40;;;;;;5012616;28;20077;-73
2022/07/24 01:53:23;;;;;;;3.20;2.47;;;21.30;58.40;;;;;;5014382;28;20137;-73
2022/07/24 01:55:51;;;;;;;3.13;2.30;;;21.10;62.20;;;;;;5005607;28;20519;-73
2022/07/24 01:58:18;;;;;;;3.13;2.20;;;21.30;58.40;;;;;;4993799;28;20090;-73
2022/07/24 02:00:45;;;;;;;3.22;2.60;;;21.30;58.40;;;;;;4993448;28;20062;-73
2022/07/24 02:03:11;;;;;;;2.83;2.53;;;21.30;58.40;;;;;;4993354;28;20054;-73
2022/07/24 02:05:38;;;;;;;2.70;2.20;;;21.30;58.40;;;;;;4993328;28;20065;-73
2022/07/24 02:08:05;;;;;;;2.90;2.30;;;21.30;58.40;;;;;;5012080;28;20061;-73
2022/07/24 02:10:32;;;;;;;2.50;2.20;;;21.20;58.40;;;;;;5012605;28;20061;-73
2022/07/24 02:13:00;;;;;;;2.85;2.40;;;21.20;58.40;;;;;;5012789;28;20157;-73
2022/07/24 02:15:27;;;;;;;3.50;2.30;;;21.10;58.30;;;;;;5013124;28;20068;-73
2022/07/24 02:17:57;;;;;;;2.80;2.40;;;21.20;58.40;;;;;;5012940;28;20091;-73
2022/07/24 02:20:24;;;;;;;2.83;2.35;;;21.20;63.30;;;;;;5009675;28;20066;-73
2022/07/24 02:22:50;;;;;;;2.85;2.22;;;21.20;58.40;;;;;;4993028;28;20535;-73
2022/07/24 02:25:17;;;;;;;4.20;2.40;;;21.20;58.40;;;;;;4993086;28;20054;-73
2022/07/24 02:27:44;;;;;;;3.28;2.30;;;21.20;62.40;;;;;;4993183;28;20064;-73
2022/07/24 02:30:13;;;;;;;2.60;2.10;;;21.20;58.40;;;;;;4993152;28;20397;-73
2022/07/24 02:32:40;;;;;;;3.03;2.30;;;21.10;63.30;;;;;;4992889;28;20133;-73
2022/07/24 02:35:08;;;;;;;2.33;1.98;;;20.70;63.40;;;;;;4995502;28;20136;-73
2022/07/24 02:37:36;;;;;;;3.05;2.35;;;20.70;61.90;;;;;;5012229;28;20060;-73
2022/07/24 02:40:03;;;;;;;3.13;2.33;;;21.20;58.40;;;;;;5012276;28;20056;-73
2022/07/24 02:42:30;;;;;;;2.15;1.92;;;21.20;58.40;;;;;;5011988;28;20141;-73
2022/07/24 02:44:57;;;;;;;2.45;2.15;;;21.10;63.10;;;;;;5011890;28;20129;-73
2022/07/24 02:47:25;;;;;;;3.78;2.22;;;21.20;58.40;;;;;;5012208;28;20145;-73
2022/07/24 02:49:53;;;;;;;2.83;1.92;;;21.20;58.40;;;;;;5004737;28;20076;-73
2022/07/24 02:52:20;;;;;;;2.42;2.10;;;21.10;58.40;;;;;;4992338;28;20551;-73
2022/07/24 02:54:47;;;;;;;3.30;2.20;;;20.90;62.60;;;;;;4992425;28;20133;-73
2022/07/24 02:57:13;;;;;;;2.88;2.05;;;21.10;58.40;;;;;;4992548;28;20526;-73
2022/07/24 02:59:40;;;;;;;2.60;2.15;;;21.10;58.40;;;;;;4992570;28;20057;-73
2022/07/24 03:02:07;;;;;;;3.15;2.22;;;21.30;63.20;;;;;;4992115;28;20415;-73
2022/07/24 03:04:35;;;;;;;2.65;2.08;;;21.10;58.40;;;;;;4992092;28;20046;-73
2022/07/24 03:07:02;;;;;;;2.70;2.20;;;21.10;58.40;;;;;;4992505;28;20157;-73
2022/07/24 03:09:28;;;;;;;2.55;2.00;;;21.10;58.40;;;;;;4992533;28;20061;-73
2022/07/24 03:11:55;;;;;;;3.20;2.17;;;20.00;62.50;;;;;;4993372;28;20050;-73
2022/07/24 03:14:22;;;;;;;2.55;1.95;;;21.10;58.40;;;;;;4992163;28;20057;-73
2022/07/24 03:16:49;;;;;;;2.47;2.00;;;21.10;58.40;;;;;;4991847;28;20415;-73
2022/07/24 03:19:15;;;;;;;2.63;2.10;;;20.50;63.40;;;;;;5002447;28;20160;-74
2022/07/24 03:21:43;;;;;;;2.30;2.00;;;21.10;61.60;;;;;;5011728;28;20085;-74
2022/07/24 03:24:10;;;;;;;2.30;1.98;;;21.10;58.40;;;;;;5011385;28;20045;-74
2022/07/24 03:26:37;;;;;;;2.10;1.90;;;21.10;58.40;;;;;;5012571;28;20057;-74
2022/07/24 03:29:04;;;;;;;2.10;1.90;;;20.60;62.70;;;;;;5011643;28;20062;-74
2022/07/24 03:31:30;;;;;;;2.72;1.90;;;20.90;61.40;;;;;;5003812;28;20058;-73
2022/07/24 03:33:57;;;;;;;2.67;2.00;;;21.00;58.40;;;;;;4991234;28;20058;-73
2022/07/24 03:36:24;;;;;;;2.75;2.10;;;21.20;62.50;;;;;;4992044;28;20068;-73
2022/07/24 03:38:52;;;;;;;2.25;1.95;;;21.10;58.40;;;;;;4991910;28;20061;-73
2022/07/24 03:41:18;;;;;;;2.75;1.95;;;21.00;58.40;;;;;;4991363;28;20065;-73
2022/07/24 03:43:45;;;;;;;2.80;2.00;;;21.00;58.40;;;;;;4991193;28;20503;-73
2022/07/24 03:46:12;;;;;;;2.42;1.95;;;21.20;63.10;;;;;;5007281;28;20060;-73
2022/07/24 03:48:39;;;;;;;2.47;2.08;;;21.00;58.40;;;;;;4992100;28;20046;-73
2022/07/24 03:51:06;;;;;;;2.58;2.03;;;21.00;58.40;;;;;;4991246;28;20058;-73
2022/07/24 03:53:32;;;;;;;2.42;2.05;;;21.20;62.50;;;;;;4990799;28;20050;-73
2022/07/24 03:56:00;;;;;;;2.90;2.00;;;21.00;58.40;;;;;;4991060;28;20057;-73
2022/07/24 03:58:27;;;;;;;2.63;2.00;;;21.90;63.30;;;;;;5007142;28;20058;-73
2022/07/24 04:00:54;;;;;;;2.80;1.98;;;21.00;58.40;;;;;;4993024;28;20137;-73
2022/07/24 04:03:20;;;;;;;2.80;1.90;;;20.90;63.20;;;;;;4991129;28;20411;-73
2022/07/24 04:05:47;;;;;;;2.83;2.00;;;19.20;57.40;;;;;;4990643;28;20057;-73
2022/07/24 04:08:14;;;;;;;2.30;1.90;;;21.00;58.40;;;;;;4991177;28;20061;-73
2022/07/24 04:10:41;;;;;;;1.98;1.77;;;21.10;63.70;;;;;;4991014;28;20054;-73
2022/07/24 04:13:09;;;;;;;3.40;1.88;;;20.90;58.40;;;;;;4990233;28;20092;-73
2022/07/24 04:15:36;;;;;;;2.60;1.83;;;20.20;62.50;;;;;;4992914;28;20502;-73
2022/07/24 04:18:02;;;;;;;2.35;1.90;;;21.00;64.00;;;;;;4991089;28;20052;-73
2022/07/24 04:20:29;;;;;;;2.00;1.75;;;21.00;63.30;;;;;;5007749;28;20411;-73
2022/07/24 04:22:56;;;;;;;3.20;2.05;;;21.00;58.40;;;;;;4990974;28;20058;-73
2022/07/24 04:25:23;;;;;;;2.22;1.80;;;20.50;62.20;;;;;;4992176;28;20854;-73
2022/07/24 04:27:50;;;;;;;2.80;1.95;;;21.00;58.50;;;;;;4991376;28;20746;-73
2022/07/24 04:30:18;;;;;;;3.58;2.03;;;21.00;58.50;;;;;;5009749;28;20054;-73
2022/07/24 04:32:45;;;;;;;1.70;1.60;;;20.90;58.40;;;;;;5011158;28;20053;-73
2022/07/24 04:35:11;;;;;;;2.58;1.65;;;21.00;62.80;;;;;;5011402;28;20046;-73
2022/07/24 04:37:38;;;;;;;2.03;1.83;;;20.90;63.30;;;;;;5010762;28;20411;-73
2022/07/24 04:40:05;;;;;;;2.10;1.67;;;21.00;58.50;;;;;;5010117;28;20057;-73
2022/07/24 04:42:32;;;;;;;2.45;1.73;;;21.00;63.60;;;;;;5009417;28;20069;-73
2022/07/24 04:44:59;;;;;;;2.63;1.80;;;21.00;58.40;;;;;;5010063;28;20128;-73
2022/07/24 04:47:27;;;;;;;1.92;1.73;;;20.80;62.30;;;;;;5010437;28;20141;-73
2022/07/24 04:49:54;;;;;;;3.65;1.70;;;20.80;63.00;;;;;;5010436;28;20056;-73
2022/07/24 04:52:20;;;;;;;2.05;1.80;;;19.50;62.90;;;;;;5010060;28;20084;-73
2022/07/24 04:54:47;;;;;;;2.47;1.85;;;21.10;58.50;;;;;;5009833;28;20103;-73
2022/07/24 04:57:14;;;;;;;2.13;1.92;;;20.80;62.50;;;;;;4995468;28;20057;-73
2022/07/24 04:59:40;;;;;;;2.03;1.83;;;20.90;63.30;;;;;;4971545;28;20426;-73
2022/07/24 05:02:07;;;;;;;1.70;1.60;;;21.20;63.10;;;;;;4987477;28;20054;-74
2022/07/24 05:04:35;;;;;;;2.10;1.70;;;21.00;58.40;;;;;;4970977;28;20057;-74
2022/07/24 05:07:02;;;;;;;2.92;1.77;;;20.30;62.10;;;;;;4971529;28;20490;-74
2022/07/24 05:09:29;;;;;;;1.88;1.60;;;20.90;58.40;;;;;;4971167;28;20133;-74
2022/07/24 05:11:55;;;;;;;1.80;1.67;;;21.40;63.30;;;;;;4971491;28;20078;-73
2022/07/24 05:14:22;;;;;;;1.85;1.60;;;21.00;58.40;;;;;;4992961;28;20061;-73
2022/07/24 05:16:49;;;;;;;2.38;1.83;;;21.00;58.40;;;;;;4990536;28;20089;-73
2022/07/24 05:19:16;;;;;;;2.10;1.90;;;20.80;62.60;;;;;;4990189;28;20137;-73
2022/07/24 05:21:44;;;;;;;2.30;1.70;;;20.70;61.80;;;;;;4990489;28;20413;-73
2022/07/24 05:24:10;;;;;;;2.00;1.67;;;20.50;62.20;;;;;;4992077;28;20515;-73
2022/07/24 05:26:37;;;;;;;1.95;1.75;;;20.90;58.30;;;;;;4994024;28;20058;-73
2022/07/24 05:29:05;;;;;;;2.45;1.60;;;21.00;58.40;;;;;;5002908;28;20060;-74
2022/07/24 05:31:32;;;;;;;1.67;1.50;;;21.70;61.90;;;;;;5013793;28;20092;-74
2022/07/24 05:34:01;;;;;;;2.05;1.75;;;21.80;63.40;;;;;;5013642;28;20432;-74
2022/07/24 05:36:28;;;;;;;2.33;1.90;;;21.00;58.40;;;;;;5013730;28;20065;-74
2022/07/24 05:38:56;;;;;;;2.40;1.70;;;21.10;62.60;;;;;;5013786;28;20142;-74
2022/07/24 05:41:23;;;;;;;1.83;1.63;;;21.10;62.80;;;;;;5013838;28;20057;-74
2022/07/24 05:43:50;;;;;;;1.90;1.70;;;19.90;62.10;;;;;;5008950;28;20060;-74
2022/07/24 05:46:16;;;;;;;1.70;1.50;;;21.00;63.60;;;;;;5013551;28;20566;-74
2022/07/24 05:48:45;;;;;;;2.08;1.77;;;21.00;58.40;;;;;;5013536;28;20115;-74
2022/07/24 05:51:12;;;;;;;1.83;1.50;;;21.00;58.40;;;;;;5013363;28;20139;-74
2022/07/24 05:53:39;;;;;;;1.98;1.63;;;21.10;58.40;;;;;;5013171;28;20056;-74
2022/07/24 05:56:07;;;;;;;3.03;1.50;;;21.10;58.40;;;;;;5013613;28;20058;-74
2022/07/24 05:58:34;;;;;;;1.70;1.58;;;20.70;63.30;;;;;;5012946;28;20076;-74
2022/07/24 06:01:01;;;;;;;1.90;1.50;;;21.20;58.30;;;;;;5013271;28;20058;-73
2022/07/24 06:03:27;;;;;;;1.95;1.50;;;21.20;58.20;;;;;;5012875;28;20058;-73
2022/07/24 06:05:54;;;;;;;3.17;1.80;;;22.10;63.30;;;;;;5013003;28;20056;-74
2022/07/24 06:08:21;;;;;;;1.55;1.45;;;21.90;63.30;;;;;;5013449;28;20137;-74
2022/07/24 06:10:48;;;;;;;2.15;1.67;;;21.30;58.00;;;;;;5012990;28;20527;-74
2022/07/24 06:13:16;;;;;;;1.80;1.40;;;21.30;62.30;;;;;;5013108;28;20141;-74
2022/07/24 06:15:42;;;;;;;1.83;1.60;;;21.60;63.50;;;;;;5013095;28;20084;-74
2022/07/24 06:18:09;;;;;;;1.55;1.40;;;21.60;58.10;;;;;;5014117;28;20041;-74
2022/07/24 06:20:36;;;;;;;2.20;1.77;;;21.50;58.00;;;;;;5013027;28;20059;-74
2022/07/24 06:23:03;;;;;;;1.70;1.50;;;21.70;63.00;;;;;;5012784;28;20165;-74
2022/07/24 06:25:30;;;;;;;1.90;1.55;;;21.70;57.90;;;;;;5010723;28;20057;-74
2022/07/24 06:27:57;;;;;;;1.90;1.70;;;22.10;62.40;;;;;;5013027;28;20525;-74
2022/07/24 06:30:26;;;;;;;1.83;1.60;;;21.90;57.70;;;;;;5012835;28;20065;-74
2022/07/24 06:32:54;;;;;;;2.17;1.60;;;22.20;61.80;;;;;;5012087;28;20057;-74
2022/07/24 06:35:21;;;;;;;1.60;1.50;;;21.60;62.60;;;;;;4997815;28;20052;-73
2022/07/24 06:37:48;;;;;;;1.60;1.50;;;22.20;57.20;;;;;;4981602;28;20145;-73
2022/07/24 06:40:14;;;;;;;1.90;1.38;;;22.30;57.00;;;;;;4973796;28;20055;-73
2022/07/24 06:42:41;;;;;;;1.48;1.30;;;22.40;56.90;;;;;;4997182;28;20510;-73
2022/07/24 06:45:09;;;;;;;3.13;1.60;;;22.50;56.90;;;;;;5011883;28;20046;-73
2022/07/24 06:47:37;;;;;;;1.73;1.60;;;22.60;56.70;;;;;;5013689;28;20050;-73
2022/07/24 06:50:04;;;;;;;1.50;1.40;;;22.70;56.50;;;;;;5012721;28;20137;-73
2022/07/24 06:52:31;;;;;;;2.00;1.42;;;23.50;61.30;;;;;;5012174;28;20132;-73
2022/07/24 06:54:58;;;;;;;1.65;1.45;;;22.90;56.30;;;;;;5012414;28;20701;-73
2022/07/24 06:57:25;;;;;;;1.85;1.48;;;23.00;56.30;;;;;;5006866;28;20436;-73
2022/07/24 06:59:52;;;;;;;1.50;1.40;;;23.00;56.10;;;;;;4992642;28;20112;-73
2022/07/24 07:02:19;;;;;;;1.95;1.45;;;23.10;56.10;;;;;;4992652;28;20500;-73
2022/07/24 07:04:47;;;;;;;1.75;1.45;;;23.30;60.80;;;;;;4992343;28;20060;-73
2022/07/24 07:07:14;;;;;;;2.53;1.63;;;22.80;60.20;;;;;;4992630;28;20064;-73
2022/07/24 07:09:40;;;;;;;1.50;1.33;;;23.40;56.00;;;;;;4992739;28;20137;-72
2022/07/24 07:12:08;;;;;;;2.90;1.33;;;23.40;55.80;;;;;;4996829;28;20376;-73
2022/07/24 07:14:35;;;;;;;2.40;1.40;;;23.40;55.70;;;;;;4992600;28;20097;-74
2022/07/24 07:17:01;;;;;;;1.60;1.50;;;23.50;55.70;;;;;;4992661;28;20595;-74
2022/07/24 07:19:31;;;;;;;1.58;1.40;;;23.50;60.80;;;;;;4993636;28;20052;-73
2022/07/24 07:21:59;;;;;;;1.73;1.40;;;24.90;61.70;;;;;;4992616;28;20072;-73
2022/07/24 07:24:26;;;;;;;1.92;1.50;;;23.80;60.80;;;;;;4992761;28;20109;-73
2022/07/24 07:26:53;;;;;;;2.58;1.63;;;23.60;55.60;;;;;;4992523;28;20050;-73
2022/07/24 07:29:20;;;;;;;1.92;1.58;;;23.70;55.50;;;;;;4994658;28;20057;-73
2022/07/24 07:31:46;;;;;;;2.72;1.55;;;23.90;60.00;;;;;;4992190;28;20133;-73
2022/07/24 07:34:13;;;;;;;2.97;1.70;;;23.70;55.40;;;;;;4992270;28;20050;-72
2022/07/24 07:36:40;;;;;;;2.47;1.40;;;23.70;55.40;;;;;;4993196;28;20058;-72
2022/07/24 07:39:08;;;;;;;2.08;1.65;;;23.80;60.10;;;;;;4991819;28;20137;-72
2022/07/24 07:41:35;;;;;;;2.40;1.80;;;23.70;58.00;;;;;;4992163;28;20129;-72
2022/07/24 07:44:02;;;;;;;3.13;1.50;;;23.80;55.30;;;;;;4993020;28;20502;-76
2022/07/24 07:46:28;;;;;;;2.05;1.75;;;23.60;59.90;;;;;;4991916;28;20081;-77
2022/07/24 07:48:55;;;;;;;1.67;1.40;;;23.90;60.40;;;;;;4992230;28;20060;-76
2022/07/24 07:51:22;;;;;;;1.80;1.50;;;24.00;55.30;;;;;;4991784;28;20089;-76
2022/07/24 07:53:49;;;;;;;1.58;1.40;;;24.00;55.30;;;;;;4991451;28;20050;-76
2022/07/24 07:56:17;;;;;;;2.28;1.40;;;24.10;55.30;;;;;;4991929;28;20046;-76
2022/07/24 07:58:44;;;;;;;2.67;1.58;;;24.10;55.20;;;;;;5002671;28;20448;-76
2022/07/24 08:01:11;;;;;;;1.55;1.45;;;24.20;60.90;;;;;;5009805;28;20058;-78
2022/07/24 08:03:38;;;;;;;2.92;1.60;;;24.20;55.10;;;;;;5010913;28;20527;-77
2022/07/24 08:06:06;;;;;;;1.58;1.45;;;24.30;55.10;;;;;;4997237;28;20054;-73
2022/07/24 08:08:32;;;;;;;1.60;1.45;;;24.30;55.70;;;;;;4991885;28;20129;-73
2022/07/24 08:10:59;;;;;;;1.50;1.40;;;24.40;55.10;;;;;;4994182;28;20563;-72
2022/07/24 08:13:27;;;;;;;2.05;1.50;;;24.50;59.90;;;;;;4992375;28;20137;-72
2022/07/24 08:15:54;;;;;;;1.60;1.50;;;24.40;59.90;;;;;;4991975;28;20058;-72
2022/07/24 08:18:21;;;;;;;2.15;1.90;;;24.50;54.70;;;;;;4991753;28;20436;-72
2022/07/24 08:20:48;;;;;;;2.83;1.70;;;24.50;59.40;;;;;;4991497;28;20056;-72
2022/07/24 08:23:14;;;;;;;2.53;1.80;;;24.50;54.60;;;;;;4990741;28;20050;-72
2022/07/24 08:25:41;;;;;;;2.05;1.85;;;25.00;58.60;;;;;;4990998;28;20046;-72
2022/07/24 08:28:08;;;;;;;2.10;1.90;;;24.90;59.10;;;;;;4990618;28;20056;-72
2022/07/24 08:30:37;;;;;;;1.80;1.70;;;24.50;54.50;;;;;;4990627;28;20470;-72
2022/07/24 08:33:04;;;;;;;2.70;1.88;;;24.50;54.50;;;;;;4990889;28;20058;-72
2022/07/24 08:35:31;;;;;;;1.85;1.70;;;24.60;59.20;;;;;;5007599;28;20046;-74
2022/07/24 08:37:57;;;;;;;2.88;2.00;;;24.50;54.60;;;;;;4994840;28;20054;-73
2022/07/24 08:40:24;;;;;;;2.20;2.00;;;24.50;54.60;;;;;;5006891;28;20145;-72
2022/07/24 08:42:51;;;;;;;2.42;1.90;;;24.50;54.70;;;;;;5010559;28;20573;-72
2022/07/24 08:45:18;;;;;;;7.78;2.05;;;24.40;54.60;;;;;;5010366;28;20058;-72
2022/07/24 08:47:46;;;;;;;3.08;1.80;;;24.60;59.30;;;;;;4989794;28;20081;-72
2022/07/24 08:50:13;;;;;;;2.85;2.13;;;24.50;54.60;;;;;;4990086;28;20141;-73
2022/07/24 08:52:40;;;;;;;2.17;1.83;;;24.50;54.70;;;;;;4991126;28;20066;-73
2022/07/24 08:55:07;;;;;;;3.13;2.13;;;24.40;54.70;;;;;;5002537;28;20141;-73
2022/07/24 08:57:34;;;;;;;2.78;1.95;;;24.50;54.70;;;;;;5011253;28;20084;-72
2022/07/24 09:00:01;;;;;;;2.88;2.20;;;24.60;59.90;;;;;;5010145;28;20410;-72
2022/07/24 09:02:28;;;;;;;4.38;2.13;;;24.50;54.70;;;;;;5010650;28;20100;-72
2022/07/24 09:05:00;;;;;;;2.95;2.10;;;24.50;54.70;;;;;;5010257;28;20065;-72
2022/07/24 09:07:29;;;;;;;2.45;2.00;;;24.70;59.40;;;;;;5006949;28;20061;-72
2022/07/24 09:09:59;;;;;;;3.78;2.33;;;24.60;54.90;;;;;;4974549;28;20719;-72
2022/07/24 09:12:26;;;;;;;3.55;2.10;;;25.50;59.90;;;;;;4990625;28;20078;-72
2022/07/24 09:14:53;;;;;;;2.45;2.08;;;25.30;59.70;;;;;;4990813;28;20050;-72
2022/07/24 09:17:21;;;;;;;3.67;2.15;;;24.50;54.90;;;;;;4991527;28;20050;-72
2022/07/24 09:19:51;;;;;;;4.00;2.60;;;24.50;60.10;;;;;;4990586;28;20141;-72
2022/07/24 09:22:35;;;;;;;3.33;2.10;;;24.60;59.70;;;;;;4991832;28;20050;-72
2022/07/24 09:25:08;;;;;;;2.88;2.05;;;24.50;55.50;;;;;;4991601;28;20054;-72
2022/07/24 09:27:35;;;;;;;2.58;2.17;;;24.60;54.90;;;;;;4991801;28;20145;-72
2022/07/24 09:30:01;;;;;;;2.45;2.15;;;24.60;54.90;;;;;;4992173;28;20058;-72
2022/07/24 09:32:28;;;;;;;3.08;2.17;;;24.10;59.20;;;;;;4993565;28;20133;-72
2022/07/24 09:34:55;;;;;;;2.58;2.20;;;24.50;59.20;;;;;;4990110;28;20097;-72
2022/07/24 09:37:22;;;;;;;3.15;2.58;;;24.50;54.90;;;;;;5006744;28;20101;-72
2022/07/24 09:39:50;;;;;;;3.38;2.20;;;24.50;54.90;;;;;;5007162;28;20476;-72
2022/07/24 09:42:18;;;;;;;3.17;2.28;;;24.50;54.90;;;;;;4990206;28;20055;-72
2022/07/24 09:44:45;;;;;;;2.85;2.28;;;24.50;55.00;;;;;;4991581;28;20046;-72
2022/07/24 09:47:14;;;;;;;2.63;2.28;;;24.50;59.30;;;;;;5006507;28;20061;-72
2022/07/24 09:49:41;;;;;;;3.10;2.55;;;24.50;55.00;;;;;;4991316;28;20148;-72
2022/07/24 09:52:13;;;;;;;4.03;2.55;;;24.50;55.00;;;;;;4989192;28;20133;-72
2022/07/24 09:54:41;;;;;;;3.75;2.58;;;24.50;55.00;;;;;;4987501;28;20124;-73
2022/07/24 09:57:23;;;;;;;4.18;2.40;;;23.70;58.60;;;;;;5004395;28;20052;-73
2022/07/24 09:59:52;;;;;;;6.35;3.03;;;24.60;55.10;;;;;;4990232;28;20078;-73
2022/07/24 10:02:23;;;;;;;6.03;2.70;;;24.50;59.50;;;;;;4990395;28;20137;-73
2022/07/24 10:04:50;;;;;;;5.68;2.60;;;24.50;55.20;;;;;;4990356;28;20145;-72
2022/07/24 10:07:19;;;;;;;6.20;2.45;;;24.50;55.30;;;;;;4991412;28;20477;-74
2022/07/24 10:09:47;;;;;;;7.40;2.97;;;24.50;55.40;;;;;;4991352;28;20064;-73
2022/07/24 10:12:14;;;;;;;5.22;2.38;;;25.10;59.50;;;;;;4994391;28;20046;-73
2022/07/24 10:14:44;;;;;;;7.47;3.00;;;24.50;55.50;;;;;;4995002;28;20596;-73
2022/07/24 10:17:12;;;;;;;5.93;2.92;;;24.60;55.60;;;;;;4993808;28;20058;-73
2022/07/24 10:19:44;;;;;;;5.50;3.05;;;24.50;55.50;;;;;;4993938;28;20125;-73
2022/07/24 10:22:11;;;;;;;5.57;2.92;;;24.60;55.70;;;;;;4993808;28;20058;-72
2022/07/24 10:25:01;;;;;;;4.13;2.88;;;24.40;59.20;;;;;;4994909;28;20077;-72
2022/07/24 10:27:31;;;;;;;5.00;2.92;;;24.80;60.80;;;;;;4975555;28;20046;-73
2022/07/24 10:30:00;;;;;;;5.55;2.80;;;24.50;55.80;;;;;;4992704;28;20129;-73
2022/07/24 10:32:27;;;;;;;3.97;2.38;;;24.50;55.90;;;;;;4993083;28;20472;-72
2022/07/24 10:35:03;;;;;;;5.05;2.90;;;24.50;55.90;;;;;;4993107;28;20491;-72
2022/07/24 10:37:33;;;;;;;7.40;2.65;;;24.50;59.40;;;;;;4993371;28;20086;-72
2022/07/24 10:40:05;;;;;;;5.05;2.53;;;24.50;55.90;;;;;;4993569;28;20050;-73
2022/07/24 10:42:32;;;;;;;6.30;2.80;;;24.30;59.60;;;;;;4974074;28;20063;-75
2022/07/24 10:45:16;;;;;;;4.47;2.50;;;24.50;55.90;;;;;;4975606;28;20474;-72
2022/07/24 10:47:43;;;;;;;4.18;2.75;;;24.50;55.90;;;;;;4993561;28;20125;-72
2022/07/24 10:50:10;;;;;;;3.70;2.50;;;24.70;61.40;;;;;;4992142;28;20074;-72
2022/07/24 10:52:39;;;;;;;4.35;2.53;;;24.50;55.90;;;;;;4993771;28;20142;-72
2022/07/24 10:55:23;;;;;;;3.13;2.60;;;24.60;55.90;;;;;;4993456;28;20380;-72
2022/07/24 10:57:54;;;;;;;5.97;2.60;;;24.40;59.90;;;;;;4991357;28;20046;-72
2022/07/24 11:00:27;;;;;;;4.45;2.78;;;24.70;56.00;;;;;;5006720;28;20065;-72
2022/07/24 11:02:59;;;;;;;3.75;2.60;;;24.70;60.20;;;;;;4993775;28;20050;-72
2022/07/24 11:05:33;;;;;;;3.70;2.47;;;24.60;58.40;;;;;;4815960;28;10000819;-72
2022/07/24 11:08:34;;;;;;;3.13;2.33;;;24.60;55.90;;;;;;4491086;28;10000885;-72
2022/07/24 11:11:14;;;;;;;3.13;2.30;;;24.50;60.10;;;;;;5033658;28;20240;-72
2022/07/24 11:13:59;;;;;;;4.50;2.40;;;24.60;55.90;;;;;;5032197;28;20057;-72
2022/07/24 11:16:28;;;;;;;6.25;2.88;;;24.60;55.80;;;;;;5032507;28;20056;-73
2022/07/24 11:19:29;;;;;;;3.75;2.20;;;24.50;59.70;;;;;;5022818;28;20062;-73
2022/07/24 11:22:09;;;;;;;2.83;2.22;;;24.60;55.90;;;;;;5011062;28;20132;-73
2022/07/24 11:24:40;;;;;;;4.93;2.40;;;24.60;55.90;;;;;;5026386;28;20080;-73
2022/07/24 11:27:08;;;;;;;3.55;2.28;;;24.90;60.00;;;;;;5015409;28;20474;-73
2022/07/24 11:29:35;;;;;;;3.58;2.30;;;24.60;55.90;;;;;;5013818;28;20213;-73
2022/07/24 11:32:07;;;;;;;3.00;2.20;;;24.60;55.80;;;;;;5010928;28;20069;-73
2022/07/24 11:34:34;;;;;;;4.57;2.28;;;24.60;55.80;;;;;;5011436;28;20521;-73
2022/07/24 11:37:01;;;;;;;4.43;2.30;;;24.60;55.80;;;;;;5018555;28;20052;-74
2022/07/24 11:39:29;;;;;;;3.03;2.45;;;24.60;55.80;;;;;;5015199;28;20601;-74
2022/07/24 11:41:57;;;;;;;3.53;2.20;;;24.60;55.80;;;;;;5011410;28;20049;-73
2022/07/24 11:44:25;;;;;;;3.00;2.03;;;24.60;55.80;;;;;;5010956;28;20050;-73
2022/07/24 11:46:51;;;;;;;3.13;2.20;;;24.70;60.10;;;;;;5011050;28;20146;-72
2022/07/24 11:49:19;;;;;;;2.97;2.13;;;24.60;55.90;;;;;;5008476;28;20057;-73
2022/07/24 11:51:47;;;;;;;3.88;2.40;;;24.10;57.80;;;;;;5011475;28;20058;-73
2022/07/24 11:54:15;;;;;;;3.95;2.30;;;25.50;60.10;;;;;;5011070;28;20061;-73
2022/07/24 11:56:41;;;;;;;3.42;2.28;;;24.60;55.90;;;;;;5011389;28;20130;-73
2022/07/24 11:59:22;;;;;;;3.92;2.47;;;24.80;61.10;;;;;;5010819;28;20133;-74
2022/07/24 12:01:48;;;;;;;5.13;2.30;;;24.70;59.70;;;;;;4991542;28;20181;-74
2022/07/24 12:04:21;;;;;;;3.28;2.15;;;24.70;56.00;;;;;;4991840;28;20484;-74
2022/07/24 12:06:48;;;;;;;3.30;2.33;;;24.30;59.80;;;;;;4991556;28;20054;-74
2022/07/24 12:09:15;;;;;;;3.28;2.40;;;24.60;56.00;;;;;;4992780;28;20050;-74
2022/07/24 12:11:41;;;;;;;3.75;2.20;;;25.00;58.60;;;;;;4991566;28;20140;-74
2022/07/24 12:14:14;;;;;;;3.28;2.22;;;24.70;59.90;;;;;;4991521;28;20080;-74
2022/07/24 12:16:41;;;;;;;2.92;2.20;;;24.60;60.40;;;;;;5004963;28;20046;-73
2022/07/24 12:19:15;;;;;;;3.45;2.28;;;24.70;56.00;;;;;;5010354;28;20482;-73
2022/07/24 12:21:43;;;;;;;7.13;2.95;;;24.60;58.10;;;;;;5009518;28;20586;-73
2022/07/24 12:24:10;;;;;;;4.85;2.53;;;24.70;60.00;;;;;;5010655;28;20529;-73
2022/07/24 12:26:49;;;;;;;7.97;3.30;;;24.80;56.10;;;;;;5011588;28;20060;-73
2022/07/24 12:29:16;;;;;;;9.98;3.65;;;24.70;60.30;;;;;;5010502;28;20050;-73
2022/07/24 12:31:43;;;;;;;11.32;4.30;;;24.60;58.10;;;;;;5010365;28;20380;-73
2022/07/24 12:34:09;;;;;;;14.10;4.90;;;24.70;56.00;;;;;;5009727;28;20140;-73
2022/07/24 12:36:36;;;;;;;14.20;4.60;;;24.70;56.00;;;;;;5010426;28;20419;-74
2022/07/24 12:39:05;;;;;;;16.05;4.35;;;24.70;56.00;;;;;;5010758;28;20060;-74
2022/07/24 12:41:32;;;;;;;13.52;4.93;;;24.90;58.10;;;;;;5010593;28;20053;-74
2022/07/24 12:43:59;;;;;;;14.90;5.18;;;24.70;56.00;;;;;;5027211;28;20136;-74
2022/07/24 12:46:31;;;;;;;17.17;5.47;;;24.70;56.00;;;;;;5026979;28;20059;-74
2022/07/24 12:48:58;;;;;;;20.10;5.93;;;24.70;60.50;;;;;;5010394;28;20054;-73